createdAt,value
2018-05-23T00:00:25.653Z,0
2018-05-23T00:01:34.565Z,0
2018-05-23T00:02:43.209Z,0
2018-05-23T00:03:51.861Z,0
2018-05-23T00:05:00.509Z,0
2018-05-23T00:06:09.159Z,0
2018-05-23T00:07:17.800Z,0
2018-05-23T00:08:26.449Z,0
2018-05-23T00:09:35.099Z,0
2018-05-23T00:10:43.750Z,0
2018-05-23T00:11:52.648Z,0
2018-05-23T00:13:01.300Z,0
2018-05-23T00:14:09.950Z,0
2018-05-23T00:15:18.861Z,0
2018-05-23T00:16:27.504Z,0
2018-05-23T00:17:36.152Z,0
2018-05-23T00:18:45.066Z,0
2018-05-23T00:19:53.715Z,0
2018-05-23T00:21:02.363Z,0
2018-05-23T00:22:11.006Z,0
2018-05-23T00:23:19.655Z,0
2018-05-23T00:24:28.564Z,0
2018-05-23T00:25:37.219Z,0
2018-05-23T00:26:45.861Z,0
2018-05-23T00:27:54.858Z,0
2018-05-23T00:29:03.504Z,0
2018-05-23T00:30:12.425Z,0
2018-05-23T00:31:21.067Z,0
2018-05-23T00:32:29.985Z,0
2018-05-23T00:33:38.633Z,0
2018-05-23T00:34:47.281Z,0
2018-05-23T00:35:55.931Z,0
2018-05-23T00:37:04.577Z,0
2018-05-23T00:38:13.220Z,0
2018-05-23T00:39:21.868Z,0
2018-05-23T00:40:30.518Z,0
2018-05-23T00:41:39.431Z,0
2018-05-23T00:42:48.076Z,0
2018-05-23T00:43:56.980Z,0
2018-05-23T00:45:05.638Z,0
2018-05-23T00:46:14.550Z,0
2018-05-23T00:47:23.199Z,0
2018-05-23T00:48:31.840Z,0
2018-05-23T00:49:40.492Z,0
2018-05-23T00:50:49.136Z,0
2018-05-23T00:51:57.789Z,0
2018-05-23T00:53:06.429Z,0
2018-05-23T00:54:15.078Z,0
2018-05-23T00:55:23.731Z,0
2018-05-23T00:56:32.386Z,0
2018-05-23T00:57:41.039Z,0
2018-05-23T00:58:49.941Z,0
2018-05-23T00:59:58.858Z,0
2018-05-23T01:01:07.499Z,0
2018-05-23T01:02:16.158Z,0
2018-05-23T01:03:24.796Z,0
2018-05-23T01:04:33.719Z,0
2018-05-23T01:05:42.364Z,0
2018-05-23T01:06:51.024Z,0
2018-05-23T01:07:59.662Z,0
2018-05-23T01:09:08.311Z,0
2018-05-23T01:10:16.960Z,0
2018-05-23T01:11:25.876Z,0
2018-05-23T01:12:34.530Z,0
2018-05-23T01:13:43.436Z,0
2018-05-23T01:14:52.087Z,0
2018-05-23T01:16:00.729Z,0
2018-05-23T01:17:09.388Z,0
2018-05-23T01:18:18.031Z,0
2018-05-23T01:19:26.679Z,0
2018-05-23T01:20:35.313Z,0
2018-05-23T01:21:44.240Z,0
2018-05-23T01:22:52.880Z,0
2018-05-23T01:24:01.533Z,0
2018-05-23T01:25:10.168Z,0
2018-05-23T01:26:18.824Z,0
2018-05-23T01:27:27.466Z,0
2018-05-23T01:28:36.114Z,0
2018-05-23T01:29:44.754Z,0
2018-05-23T01:30:53.404Z,0
2018-05-23T01:32:02.058Z,0
2018-05-23T01:33:10.707Z,0
2018-05-23T01:34:19.356Z,0
2018-05-23T01:35:27.998Z,0
2018-05-23T01:36:36.913Z,0
2018-05-23T01:37:45.555Z,0
2018-05-23T01:38:54.487Z,0
2018-05-23T01:40:03.130Z,0
2018-05-23T01:41:12.044Z,0
2018-05-23T01:42:20.685Z,0
2018-05-23T01:43:29.346Z,0
2018-05-23T01:44:37.984Z,0
2018-05-23T01:45:46.636Z,0
2018-05-23T01:46:55.284Z,0
2018-05-23T01:48:03.938Z,0
2018-05-23T01:49:12.582Z,0
2018-05-23T01:50:21.222Z,0
2018-05-23T01:51:29.866Z,0
2018-05-23T01:52:38.508Z,0
2018-05-23T01:53:47.166Z,0
2018-05-23T01:54:55.812Z,0
2018-05-23T01:56:04.456Z,0
2018-05-23T01:57:13.113Z,0
2018-05-23T01:58:21.750Z,0
2018-05-23T01:59:30.405Z,0
2018-05-23T02:00:39.050Z,0
2018-05-23T02:01:47.708Z,0
2018-05-23T02:02:56.345Z,0
2018-05-23T02:04:04.994Z,0
2018-05-23T02:05:13.902Z,0
2018-05-23T02:06:22.564Z,0
2018-05-23T02:07:31.207Z,0
2018-05-23T02:08:39.848Z,0
2018-05-23T02:09:48.495Z,0
2018-05-23T02:10:57.409Z,0
2018-05-23T02:12:06.059Z,0
2018-05-23T02:13:14.700Z,0
2018-05-23T02:14:23.614Z,0
2018-05-23T02:15:32.252Z,0
2018-05-23T02:16:40.916Z,0
2018-05-23T02:17:49.819Z,0
2018-05-23T02:18:58.467Z,0
2018-05-23T02:20:07.106Z,0
2018-05-23T02:21:15.762Z,0
2018-05-23T02:22:24.405Z,0
2018-05-23T02:23:33.326Z,0
2018-05-23T02:24:42.237Z,0
2018-05-23T02:25:50.882Z,0
2018-05-23T02:26:59.797Z,0
2018-05-23T02:28:08.703Z,0
2018-05-23T02:29:17.612Z,0
2018-05-23T02:30:26.256Z,0
2018-05-23T02:31:35.175Z,0
2018-05-23T02:32:43.818Z,0
2018-05-23T02:33:52.749Z,0
2018-05-23T02:35:01.925Z,0
2018-05-23T02:36:10.575Z,0
2018-05-23T02:37:19.219Z,0
2018-05-23T02:38:27.874Z,0
2018-05-23T02:39:36.516Z,0
2018-05-23T02:40:45.170Z,0
2018-05-23T02:41:53.816Z,0
2018-05-23T02:43:02.476Z,0
2018-05-23T02:44:11.125Z,0
2018-05-23T02:45:19.780Z,0
2018-05-23T02:46:28.692Z,0
2018-05-23T02:47:37.338Z,0
2018-05-23T02:48:45.996Z,0
2018-05-23T02:49:54.913Z,0
2018-05-23T02:51:03.564Z,0
2018-05-23T02:52:12.214Z,0
2018-05-23T02:53:21.131Z,0
2018-05-23T02:54:29.785Z,0
2018-05-23T02:55:38.431Z,0
2018-05-23T02:56:47.074Z,0
2018-05-23T02:57:55.725Z,4
2018-05-23T02:59:04.632Z,4
2018-05-23T03:00:13.280Z,0
2018-05-23T03:01:22.168Z,0
2018-05-23T03:02:31.338Z,0
2018-05-23T03:03:40.295Z,4
2018-05-23T03:04:49.190Z,4
2018-05-23T03:05:58.188Z,0
2018-05-23T03:07:06.878Z,4
2018-05-23T03:08:15.526Z,4
2018-05-23T03:09:24.168Z,4
2018-05-23T03:10:33.082Z,4
2018-05-23T03:11:41.722Z,8
2018-05-23T03:12:50.636Z,8
2018-05-23T03:13:59.283Z,8
2018-05-23T03:15:07.933Z,8
2018-05-23T03:16:16.574Z,12
2018-05-23T03:17:25.236Z,12
2018-05-23T03:18:33.870Z,12
2018-05-23T03:19:42.521Z,16
2018-05-23T03:20:51.164Z,16
2018-05-23T03:21:59.866Z,16
2018-05-23T03:23:08.472Z,16
2018-05-23T03:24:17.103Z,16
2018-05-23T03:25:25.753Z,20
2018-05-23T03:26:34.673Z,20
2018-05-23T03:27:43.318Z,24
2018-05-23T03:28:51.959Z,24
2018-05-23T03:30:00.613Z,24
2018-05-23T03:31:09.267Z,28
2018-05-23T03:32:18.202Z,32
2018-05-23T03:33:26.836Z,32
2018-05-23T03:34:35.488Z,36
2018-05-23T03:35:44.133Z,40
2018-05-23T03:36:52.779Z,44
2018-05-23T03:38:01.421Z,44
2018-05-23T03:39:10.069Z,48
2018-05-23T03:40:18.716Z,48
2018-05-23T03:41:27.365Z,56
2018-05-23T03:42:36.012Z,60
2018-05-23T03:43:44.652Z,64
2018-05-23T03:44:53.846Z,64
2018-05-23T03:46:02.501Z,72
2018-05-23T03:47:11.490Z,80
2018-05-23T03:48:20.133Z,84
2018-05-23T03:49:28.778Z,92
2018-05-23T03:50:37.427Z,100
2018-05-23T03:51:46.341Z,112
2018-05-23T03:52:54.981Z,124
2018-05-23T03:54:03.629Z,136
2018-05-23T03:55:12.277Z,152
2018-05-23T03:56:21.254Z,164
2018-05-23T03:57:30.161Z,176
2018-05-23T03:58:38.803Z,188
2018-05-23T03:59:47.447Z,196
2018-05-23T04:00:56.091Z,204
2018-05-23T04:02:04.752Z,208
2018-05-23T04:03:13.395Z,212
2018-05-23T04:04:22.046Z,216
2018-05-23T04:05:30.684Z,224
2018-05-23T04:06:39.604Z,232
2018-05-23T04:07:48.248Z,240
2018-05-23T04:08:56.898Z,248
2018-05-23T04:10:05.535Z,260
2018-05-23T04:11:14.191Z,272
2018-05-23T04:12:22.834Z,284
2018-05-23T04:13:31.483Z,292
2018-05-23T04:14:40.121Z,304
2018-05-23T04:15:48.770Z,316
2018-05-23T04:16:57.687Z,336
2018-05-23T04:18:06.604Z,356
2018-05-23T04:19:15.248Z,380
2018-05-23T04:20:24.152Z,408
2018-05-23T04:21:32.803Z,436
2018-05-23T04:22:41.447Z,464
2018-05-23T04:23:50.102Z,492
2018-05-23T04:24:58.784Z,516
2018-05-23T04:26:07.872Z,532
2018-05-23T04:27:16.517Z,548
2018-05-23T04:28:25.442Z,568
2018-05-23T04:29:34.083Z,584
2018-05-23T04:30:42.997Z,600
2018-05-23T04:31:51.642Z,608
2018-05-23T04:33:00.561Z,628
2018-05-23T04:34:09.206Z,648
2018-05-23T04:35:17.848Z,676
2018-05-23T04:36:26.488Z,704
2018-05-23T04:37:35.132Z,740
2018-05-23T04:38:43.788Z,780
2018-05-23T04:39:52.432Z,816
2018-05-23T04:41:01.084Z,860
2018-05-23T04:42:09.721Z,908
2018-05-23T04:43:18.376Z,952
2018-05-23T04:44:27.021Z,984
2018-05-23T04:45:35.667Z,1008
2018-05-23T04:46:44.306Z,1032
2018-05-23T04:47:52.962Z,1060
2018-05-23T04:49:01.606Z,1092
2018-05-23T04:50:10.252Z,1136
2018-05-23T04:51:18.897Z,1180
2018-05-23T04:52:27.549Z,1224
2018-05-23T04:53:36.192Z,1256
2018-05-23T04:54:44.842Z,1272
2018-05-23T04:55:53.491Z,1276
2018-05-23T04:57:02.134Z,1272
2018-05-23T04:58:10.784Z,1276
2018-05-23T04:59:19.435Z,1288
2018-05-23T05:00:28.089Z,1308
2018-05-23T05:01:36.724Z,1324
2018-05-23T05:02:45.370Z,1340
2018-05-23T05:03:54.018Z,1356
2018-05-23T05:05:02.669Z,1356
2018-05-23T05:06:11.310Z,1352
2018-05-23T05:07:20.222Z,1344
2018-05-23T05:08:28.866Z,1336
2018-05-23T05:09:37.518Z,1336
2018-05-23T05:10:46.161Z,1344
2018-05-23T05:11:55.077Z,1356
2018-05-23T05:13:03.722Z,1368
2018-05-23T05:14:12.366Z,1388
2018-05-23T05:15:21.287Z,1400
2018-05-23T05:16:29.933Z,1416
2018-05-23T05:17:38.579Z,1420
2018-05-23T05:18:47.222Z,1424
2018-05-23T05:19:55.873Z,1432
2018-05-23T05:21:04.521Z,1452
2018-05-23T05:22:13.431Z,1472
2018-05-23T05:23:22.072Z,1492
2018-05-23T05:24:30.725Z,1516
2018-05-23T05:25:39.374Z,1536
2018-05-23T05:26:48.017Z,1556
2018-05-23T05:27:56.929Z,1584
2018-05-23T05:29:05.578Z,1616
2018-05-23T05:30:14.489Z,1652
2018-05-23T05:31:23.137Z,1688
2018-05-23T05:32:31.788Z,1728
2018-05-23T05:33:40.691Z,1776
2018-05-23T05:34:49.344Z,1816
2018-05-23T05:35:57.994Z,1868
2018-05-23T05:37:06.646Z,1944
2018-05-23T05:38:15.288Z,2024
2018-05-23T05:39:23.934Z,2144
2018-05-23T05:40:32.581Z,2272
2018-05-23T05:41:41.241Z,2392
2018-05-23T05:42:49.886Z,2528
2018-05-23T05:43:58.957Z,2660
2018-05-23T05:45:07.634Z,2776
2018-05-23T05:46:16.288Z,2868
2018-05-23T05:47:25.200Z,2940
2018-05-23T05:48:34.112Z,2988
2018-05-23T05:49:43.027Z,3036
2018-05-23T05:50:51.679Z,3084
2018-05-23T05:52:00.319Z,3124
2018-05-23T05:53:08.971Z,3176
2018-05-23T05:54:17.620Z,3224
2018-05-23T05:55:26.272Z,3228
2018-05-23T05:56:34.919Z,3196
2018-05-23T05:57:43.563Z,3152
2018-05-23T05:58:52.214Z,3104
2018-05-23T06:00:00.869Z,3064
2018-05-23T06:01:09.784Z,3064
2018-05-23T06:02:18.694Z,3100
2018-05-23T06:03:27.351Z,3160
2018-05-23T06:04:35.992Z,3232
2018-05-23T06:05:44.636Z,3292
2018-05-23T06:06:53.287Z,3340
2018-05-23T06:08:01.938Z,3376
2018-05-23T06:09:10.582Z,3404
2018-05-23T06:10:19.234Z,3408
2018-05-23T06:11:27.887Z,3416
2018-05-23T06:12:36.799Z,3452
2018-05-23T06:13:45.443Z,3500
2018-05-23T06:14:54.362Z,3572
2018-05-23T06:16:03.009Z,3652
2018-05-23T06:17:11.657Z,3732
2018-05-23T06:18:20.303Z,3808
2018-05-23T06:19:29.216Z,3904
2018-05-23T06:20:37.869Z,4016
2018-05-23T06:21:46.521Z,4156
2018-05-23T06:22:55.426Z,4328
2018-05-23T06:24:04.077Z,4512
2018-05-23T06:25:12.725Z,4684
2018-05-23T06:26:21.374Z,4824
2018-05-23T06:27:30.028Z,4928
2018-05-23T06:28:38.674Z,4992
2018-05-23T06:29:47.323Z,5040
2018-05-23T06:30:55.971Z,5072
2018-05-23T06:32:04.623Z,5112
2018-05-23T06:33:13.271Z,5140
2018-05-23T06:34:21.921Z,5128
2018-05-23T06:35:30.564Z,5112
2018-05-23T06:36:39.221Z,5116
2018-05-23T06:37:47.948Z,5188
2018-05-23T06:38:56.516Z,5260
2018-05-23T06:40:05.163Z,5332
2018-05-23T06:41:13.818Z,5392
2018-05-23T06:42:22.466Z,5468
2018-05-23T06:43:31.485Z,5508
2018-05-23T06:44:40.415Z,5572
2018-05-23T06:45:49.063Z,5632
2018-05-23T06:46:57.716Z,5696
2018-05-23T06:48:06.646Z,5720
2018-05-23T06:49:15.303Z,5716
2018-05-23T06:50:23.942Z,5652
2018-05-23T06:51:32.605Z,5640
2018-05-23T06:52:41.250Z,5624
2018-05-23T06:53:49.902Z,5684
2018-05-23T06:54:58.546Z,5752
2018-05-23T06:56:07.472Z,5824
2018-05-23T06:57:16.382Z,5872
2018-05-23T06:58:25.034Z,5900
2018-05-23T06:59:33.676Z,5904
2018-05-23T07:00:42.328Z,5860
2018-05-23T07:01:50.984Z,5788
2018-05-23T07:02:59.640Z,5692
2018-05-23T07:04:08.293Z,5564
2018-05-23T07:05:16.934Z,5420
2018-05-23T07:06:25.589Z,5284
2018-05-23T07:07:34.232Z,5128
2018-05-23T07:08:42.899Z,5016
2018-05-23T07:09:51.540Z,4932
2018-05-23T07:11:00.295Z,4864
2018-05-23T07:12:09.116Z,4828
2018-05-23T07:13:18.036Z,4840
2018-05-23T07:14:26.678Z,4912
2018-05-23T07:15:35.331Z,5048
2018-05-23T07:16:44.245Z,5196
2018-05-23T07:17:52.917Z,5340
2018-05-23T07:19:01.818Z,5472
2018-05-23T07:20:10.464Z,5584
2018-05-23T07:21:19.110Z,5660
2018-05-23T07:22:27.758Z,5736
2018-05-23T07:23:36.417Z,5792
2018-05-23T07:24:45.064Z,5836
2018-05-23T07:25:53.741Z,5888
2018-05-23T07:27:02.360Z,5944
2018-05-23T07:28:11.019Z,5984
2018-05-23T07:29:19.665Z,6036
2018-05-23T07:30:28.322Z,6092
2018-05-23T07:31:37.015Z,6160
2018-05-23T07:32:45.621Z,6228
2018-05-23T07:33:54.270Z,6288
2018-05-23T07:35:02.925Z,6328
2018-05-23T07:36:11.569Z,6376
2018-05-23T07:37:20.219Z,6492
2018-05-23T07:38:29.268Z,6520
2018-05-23T07:39:37.830Z,6564
2018-05-23T07:40:46.483Z,6580
2018-05-23T07:41:55.126Z,6648
2018-05-23T07:43:03.782Z,6688
2018-05-23T07:44:12.427Z,6800
2018-05-23T07:45:21.362Z,6852
2018-05-23T07:46:30.008Z,6936
2018-05-23T07:47:38.657Z,6980
2018-05-23T07:48:47.314Z,6952
2018-05-23T07:49:55.961Z,6928
2018-05-23T07:51:04.617Z,6948
2018-05-23T07:52:13.529Z,6928
2018-05-23T07:53:22.184Z,6904
2018-05-23T07:54:30.830Z,6876
2018-05-23T07:55:39.483Z,6864
2018-05-23T07:56:48.415Z,6936
2018-05-23T07:57:57.070Z,6896
2018-05-23T07:59:05.726Z,6932
2018-05-23T08:00:14.372Z,6896
2018-05-23T08:01:23.022Z,6932
2018-05-23T08:02:31.672Z,6988
2018-05-23T08:03:40.327Z,6988
2018-05-23T08:04:48.978Z,7088
2018-05-23T08:05:57.629Z,7192
2018-05-23T08:07:06.280Z,7276
2018-05-23T08:08:14.937Z,7256
2018-05-23T08:09:23.586Z,7188
2018-05-23T08:10:32.239Z,7200
2018-05-23T08:11:40.894Z,7320
2018-05-23T08:12:49.817Z,7268
2018-05-23T08:13:58.732Z,7300
2018-05-23T08:15:07.392Z,7212
2018-05-23T08:16:16.035Z,7116
2018-05-23T08:17:24.682Z,7068
2018-05-23T08:18:33.338Z,7016
2018-05-23T08:19:41.988Z,6980
2018-05-23T08:20:50.640Z,6888
2018-05-23T08:21:59.289Z,6696
2018-05-23T08:23:07.948Z,6548
2018-05-23T08:24:16.689Z,6444
2018-05-23T08:25:25.255Z,6328
2018-05-23T08:26:33.902Z,6268
2018-05-23T08:27:42.558Z,6176
2018-05-23T08:28:51.285Z,5984
2018-05-23T08:29:59.861Z,5964
2018-05-23T08:31:08.506Z,5880
2018-05-23T08:32:17.160Z,5880
2018-05-23T08:33:25.819Z,5948
2018-05-23T08:34:34.472Z,6004
2018-05-23T08:35:43.127Z,6032
2018-05-23T08:36:51.776Z,5984
2018-05-23T08:38:00.420Z,6072
2018-05-23T08:39:09.072Z,6036
2018-05-23T08:40:17.732Z,6128
2018-05-23T08:41:26.376Z,6148
2018-05-23T08:42:35.028Z,6180
2018-05-23T08:43:43.680Z,6180
2018-05-23T08:44:52.337Z,6188
2018-05-23T08:46:01.498Z,6220
2018-05-23T08:47:10.373Z,6264
2018-05-23T08:48:19.021Z,6336
2018-05-23T08:49:27.680Z,6388
2018-05-23T08:50:36.330Z,6412
2018-05-23T08:51:44.982Z,6484
2018-05-23T08:52:53.633Z,6524
2018-05-23T08:54:02.282Z,6556
2018-05-23T08:55:10.943Z,6532
2018-05-23T08:56:19.862Z,6516
2018-05-23T08:57:28.517Z,6568
2018-05-23T08:58:37.160Z,6580
2018-05-23T08:59:45.824Z,6596
2018-05-23T09:00:54.471Z,6596
2018-05-23T09:02:03.188Z,6620
2018-05-23T09:03:12.094Z,6604
2018-05-23T09:04:20.754Z,6596
2018-05-23T09:05:29.407Z,6604
2018-05-23T09:06:38.058Z,6616
2018-05-23T09:07:46.701Z,6616
2018-05-23T09:08:55.355Z,6596
2018-05-23T09:10:04.013Z,6588
2018-05-23T09:11:12.739Z,6576
2018-05-23T09:12:21.440Z,6568
2018-05-23T09:13:29.962Z,6556
2018-05-23T09:14:38.619Z,6564
2018-05-23T09:15:47.267Z,6560
2018-05-23T09:16:55.928Z,6548
2018-05-23T09:18:04.571Z,6524
2018-05-23T09:19:13.229Z,6528
2018-05-23T09:20:21.876Z,6504
2018-05-23T09:21:30.539Z,6496
2018-05-23T09:22:39.183Z,6500
2018-05-23T09:23:47.838Z,6516
2018-05-23T09:24:56.757Z,6548
2018-05-23T09:26:05.416Z,6664
2018-05-23T09:27:14.335Z,6684
2018-05-23T09:28:22.977Z,6712
2018-05-23T09:29:31.627Z,6732
2018-05-23T09:30:40.277Z,6808
2018-05-23T09:31:48.940Z,6892
2018-05-23T09:32:57.851Z,6976
2018-05-23T09:34:06.510Z,7068
2018-05-23T09:35:15.154Z,7100
2018-05-23T09:36:23.815Z,7168
2018-05-23T09:37:32.468Z,7180
2018-05-23T09:38:41.120Z,7136
2018-05-23T09:39:49.764Z,7188
2018-05-23T09:40:58.425Z,7332
2018-05-23T09:42:07.075Z,7688
2018-05-23T09:43:15.727Z,7892
2018-05-23T09:44:24.387Z,8020
2018-05-23T09:45:33.038Z,8080
2018-05-23T09:46:41.689Z,8088
2018-05-23T09:47:50.338Z,8104
2018-05-23T09:48:58.988Z,8040
2018-05-23T09:50:07.652Z,8088
2018-05-23T09:51:16.297Z,8116
2018-05-23T09:52:24.954Z,8036
2018-05-23T09:53:33.873Z,7956
2018-05-23T09:54:42.533Z,7868
2018-05-23T09:55:51.181Z,7776
2018-05-23T09:57:00.101Z,7776
2018-05-23T09:58:08.745Z,7772
2018-05-23T09:59:17.410Z,7740
2018-05-23T10:00:26.064Z,7656
2018-05-23T10:01:34.753Z,7532
2018-05-23T10:02:43.627Z,7416
2018-05-23T10:03:52.284Z,7320
2018-05-23T10:05:01.210Z,7212
2018-05-23T10:06:09.867Z,7148
2018-05-23T10:07:18.523Z,7036
2018-05-23T10:08:27.166Z,7036
2018-05-23T10:09:35.825Z,7032
2018-05-23T10:10:45.005Z,7036
2018-05-23T10:11:55.200Z,6964
2018-05-23T10:13:03.850Z,6904
2018-05-23T10:14:12.822Z,6828
2018-05-23T10:15:21.422Z,6856
2018-05-23T10:16:30.087Z,6952
2018-05-23T10:17:38.727Z,6968
2018-05-23T10:18:47.382Z,7108
2018-05-23T10:19:56.033Z,7232
2018-05-23T10:21:04.690Z,7236
2018-05-23T10:22:13.342Z,7312
2018-05-23T10:23:22.077Z,7404
2018-05-23T10:24:30.732Z,7600
2018-05-23T10:25:39.974Z,7596
2018-05-23T10:26:48.923Z,7692
2018-05-23T10:27:57.913Z,7784
2018-05-23T10:29:06.990Z,7752
2018-05-23T10:30:15.753Z,7856
2018-05-23T10:31:24.417Z,8048
2018-05-23T10:32:33.068Z,8108
2018-05-23T10:33:41.734Z,8100
2018-05-23T10:34:50.981Z,8136
2018-05-23T10:35:59.808Z,8160
2018-05-23T10:37:08.742Z,8180
2018-05-23T10:38:17.390Z,8180
2018-05-23T10:39:26.039Z,8108
2018-05-23T10:40:34.693Z,8076
2018-05-23T10:41:43.354Z,7908
2018-05-23T10:42:52.013Z,7956
2018-05-23T10:44:00.931Z,7920
2018-05-23T10:45:09.840Z,7736
2018-05-23T10:46:18.656Z,7640
2018-05-23T10:47:27.145Z,7552
2018-05-23T10:48:35.804Z,7404
2018-05-23T10:49:44.723Z,7340
2018-05-23T10:50:53.377Z,7240
2018-05-23T10:52:02.466Z,7076
2018-05-23T10:53:11.036Z,6920
2018-05-23T10:54:19.687Z,6740
2018-05-23T10:55:28.349Z,6644
2018-05-23T10:56:37.000Z,6572
2018-05-23T10:57:45.658Z,6568
2018-05-23T10:58:54.309Z,6568
2018-05-23T11:00:03.009Z,6508
2018-05-23T11:01:11.616Z,6468
2018-05-23T11:02:20.272Z,6468
2018-05-23T11:03:28.930Z,6508
2018-05-23T11:04:37.583Z,6572
2018-05-23T11:05:46.277Z,6648
2018-05-23T11:06:54.888Z,6680
2018-05-23T11:08:03.548Z,6728
2018-05-23T11:09:12.194Z,6804
2018-05-23T11:10:20.849Z,6892
2018-05-23T11:11:29.499Z,6932
2018-05-23T11:12:38.156Z,6984
2018-05-23T11:13:46.805Z,6984
2018-05-23T11:14:55.778Z,7048
2018-05-23T11:16:04.680Z,7096
2018-05-23T11:17:13.337Z,7108
2018-05-23T11:18:21.990Z,7136
2018-05-23T11:19:30.647Z,7156
2018-05-23T11:20:39.303Z,7188
2018-05-23T11:21:47.954Z,7208
2018-05-23T11:22:56.879Z,7224
2018-05-23T11:24:05.530Z,7244
2018-05-23T11:25:14.185Z,7288
2018-05-23T11:26:22.833Z,7312
2018-05-23T11:27:31.490Z,7376
2018-05-23T11:28:40.148Z,7472
2018-05-23T11:29:48.874Z,7476
2018-05-23T11:30:57.457Z,7460
2018-05-23T11:32:06.115Z,7556
2018-05-23T11:33:14.767Z,7600
2018-05-23T11:34:23.426Z,7544
2018-05-23T11:35:32.083Z,7516
2018-05-23T11:36:41.063Z,7792
2018-05-23T11:37:49.713Z,7784
2018-05-23T11:38:58.367Z,7812
2018-05-23T11:40:07.291Z,7824
2018-05-23T11:41:15.942Z,7748
2018-05-23T11:42:24.597Z,7688
2018-05-23T11:43:33.244Z,7568
2018-05-23T11:44:41.906Z,7604
2018-05-23T11:45:50.556Z,7468
2018-05-23T11:46:59.215Z,7444
2018-05-23T11:48:07.864Z,7460
2018-05-23T11:49:16.525Z,7376
2018-05-23T11:50:25.177Z,7400
2018-05-23T11:51:33.837Z,7364
2018-05-23T11:52:42.481Z,7356
2018-05-23T11:53:51.134Z,7308
2018-05-23T11:54:59.797Z,7272
2018-05-23T11:56:08.447Z,7256
2018-05-23T11:57:17.107Z,7144
2018-05-23T11:58:25.747Z,7088
2018-05-23T11:59:34.409Z,7028
2018-05-23T12:00:43.057Z,6948
2018-05-23T12:01:52.108Z,6868
2018-05-23T12:03:00.653Z,6724
2018-05-23T12:04:09.311Z,6624
2018-05-23T12:05:17.962Z,6572
2018-05-23T12:06:26.627Z,6544
2018-05-23T12:07:35.271Z,6560
2018-05-23T12:08:43.930Z,6564
2018-05-23T12:09:52.582Z,6560
2018-05-23T12:11:01.252Z,6560
2018-05-23T12:12:10.169Z,6576
2018-05-23T12:13:18.820Z,6600
2018-05-23T12:14:27.476Z,6608
2018-05-23T12:15:36.131Z,6608
2018-05-23T12:16:44.794Z,6572
2018-05-23T12:17:53.446Z,6532
2018-05-23T12:19:02.631Z,6496
2018-05-23T12:20:11.276Z,6484
2018-05-23T12:21:19.940Z,6504
2018-05-23T12:22:28.596Z,6488
2018-05-23T12:23:37.255Z,6408
2018-05-23T12:24:45.898Z,6332
2018-05-23T12:25:54.560Z,6240
2018-05-23T12:27:03.215Z,6180
2018-05-23T12:28:12.144Z,6112
2018-05-23T12:29:20.785Z,6052
2018-05-23T12:30:29.440Z,6048
2018-05-23T12:31:38.098Z,6016
2018-05-23T12:32:46.754Z,6020
2018-05-23T12:33:55.411Z,6080
2018-05-23T12:35:04.057Z,6052
2018-05-23T12:36:12.986Z,6016
2018-05-23T12:37:21.639Z,6012
2018-05-23T12:38:30.301Z,6192
2018-05-23T12:39:38.947Z,6056
2018-05-23T12:40:47.600Z,6108
2018-05-23T12:41:56.609Z,5984
2018-05-23T12:43:05.530Z,5960
2018-05-23T12:44:14.179Z,5888
2018-05-23T12:45:22.838Z,5824
2018-05-23T12:46:31.495Z,5796
2018-05-23T12:47:40.159Z,5724
2018-05-23T12:48:48.812Z,5680
2018-05-23T12:49:57.465Z,5696
2018-05-23T12:51:06.118Z,5648
2018-05-23T12:52:14.769Z,5652
2018-05-23T12:53:23.432Z,5676
2018-05-23T12:54:32.347Z,5704
2018-05-23T12:55:41.052Z,5744
2018-05-23T12:56:49.923Z,5772
2018-05-23T12:57:58.849Z,5820
2018-05-23T12:59:07.503Z,5864
2018-05-23T13:00:16.158Z,5892
2018-05-23T13:01:24.806Z,5920
2018-05-23T13:02:33.466Z,5924
2018-05-23T13:03:42.121Z,5940
2018-05-23T13:04:50.776Z,5948
2018-05-23T13:05:59.431Z,5960
2018-05-23T13:07:08.094Z,6004
2018-05-23T13:08:17.011Z,5960
2018-05-23T13:09:25.666Z,5968
2018-05-23T13:10:34.323Z,5992
2018-05-23T13:11:43.236Z,6008
2018-05-23T13:12:52.431Z,6032
2018-05-23T13:14:01.086Z,6080
2018-05-23T13:15:09.747Z,6084
2018-05-23T13:16:18.394Z,6132
2018-05-23T13:17:27.315Z,6172
2018-05-23T13:18:35.970Z,6232
2018-05-23T13:19:44.627Z,6284
2018-05-23T13:20:53.278Z,6376
2018-05-23T13:22:01.933Z,6476
2018-05-23T13:23:10.588Z,6560
2018-05-23T13:24:19.246Z,6668
2018-05-23T13:25:27.897Z,6772
2018-05-23T13:26:36.549Z,6876
2018-05-23T13:27:45.201Z,6988
2018-05-23T13:28:53.859Z,7028
2018-05-23T13:30:02.517Z,7092
2018-05-23T13:31:11.170Z,7140
2018-05-23T13:32:19.824Z,7160
2018-05-23T13:33:28.539Z,7160
2018-05-23T13:34:37.138Z,7140
2018-05-23T13:35:45.805Z,7100
2018-05-23T13:36:54.724Z,7064
2018-05-23T13:38:03.650Z,7044
2018-05-23T13:39:12.298Z,7076
2018-05-23T13:40:20.957Z,6996
2018-05-23T13:41:29.609Z,6956
2018-05-23T13:42:38.268Z,6952
2018-05-23T13:43:46.919Z,6968
2018-05-23T13:44:55.573Z,6968
2018-05-23T13:46:04.225Z,6936
2018-05-23T13:47:12.877Z,6928
2018-05-23T13:48:21.801Z,6900
2018-05-23T13:49:30.455Z,6880
2018-05-23T13:50:39.112Z,6860
2018-05-23T13:51:47.761Z,6808
2018-05-23T13:52:56.423Z,6764
2018-05-23T13:54:05.338Z,6692
2018-05-23T13:55:14.450Z,6664
2018-05-23T13:56:23.214Z,6640
2018-05-23T13:57:32.144Z,6560
2018-05-23T13:58:40.793Z,6564
2018-05-23T13:59:49.712Z,6512
2018-05-23T14:00:58.363Z,6388
2018-05-23T14:02:07.022Z,6512
2018-05-23T14:03:15.673Z,6436
2018-05-23T14:04:24.330Z,6384
2018-05-23T14:05:32.987Z,6364
2018-05-23T14:06:41.637Z,6368
2018-05-23T14:07:50.555Z,6288
2018-05-23T14:08:59.210Z,6232
2018-05-23T14:10:08.139Z,6160
2018-05-23T14:11:16.789Z,6084
2018-05-23T14:12:25.725Z,5984
2018-05-23T14:13:34.377Z,5852
2018-05-23T14:14:43.307Z,5808
2018-05-23T14:15:51.954Z,5732
2018-05-23T14:17:00.611Z,5724
2018-05-23T14:18:09.537Z,5736
2018-05-23T14:19:18.324Z,5564
2018-05-23T14:20:27.350Z,5420
2018-05-23T14:21:38.656Z,5292
2018-05-23T14:22:47.312Z,5168
2018-05-23T14:23:55.961Z,5000
2018-05-23T14:25:04.620Z,4848
2018-05-23T14:26:13.276Z,4728
2018-05-23T14:27:21.938Z,4656
2018-05-23T14:28:30.669Z,4584
2018-05-23T14:29:39.238Z,4548
2018-05-23T14:30:48.156Z,4444
2018-05-23T14:31:57.071Z,4320
2018-05-23T14:33:05.719Z,4156
2018-05-23T14:34:14.645Z,3996
2018-05-23T14:35:23.291Z,3904
2018-05-23T14:36:31.956Z,3828
2018-05-23T14:37:40.862Z,3796
2018-05-23T14:38:49.518Z,3760
2018-05-23T14:39:58.178Z,3732
2018-05-23T14:41:06.833Z,3688
2018-05-23T14:42:15.489Z,3668
2018-05-23T14:43:24.464Z,3584
2018-05-23T14:44:33.058Z,3540
2018-05-23T14:45:41.705Z,3500
2018-05-23T14:46:50.367Z,3476
2018-05-23T14:47:59.008Z,3472
2018-05-23T14:49:07.664Z,3432
2018-05-23T14:50:16.759Z,3408
2018-05-23T14:51:25.423Z,3376
2018-05-23T14:52:34.068Z,3348
2018-05-23T14:53:43.247Z,3304
2018-05-23T14:54:51.900Z,3240
2018-05-23T14:56:00.563Z,3180
2018-05-23T14:57:09.213Z,3060
2018-05-23T14:58:17.863Z,3096
2018-05-23T14:59:26.514Z,3108
2018-05-23T15:00:35.165Z,3100
2018-05-23T15:01:43.830Z,3080
2018-05-23T15:02:52.751Z,3016
2018-05-23T15:04:01.412Z,2996
2018-05-23T15:05:10.320Z,2988
2018-05-23T15:06:19.248Z,2980
2018-05-23T15:07:27.900Z,2972
2018-05-23T15:08:36.886Z,2956
2018-05-23T15:09:45.477Z,2956
2018-05-23T15:10:54.140Z,2964
2018-05-23T15:12:02.795Z,2920
2018-05-23T15:13:11.449Z,2956
2018-05-23T15:14:20.704Z,2908
2018-05-23T15:15:29.350Z,2872
2018-05-23T15:16:38.007Z,2836
2018-05-23T15:17:46.663Z,2840
2018-05-23T15:18:55.586Z,2844
2018-05-23T15:20:04.332Z,2808
2018-05-23T15:21:13.269Z,2812
2018-05-23T15:22:21.917Z,2864
2018-05-23T15:23:30.573Z,2824
2018-05-23T15:24:39.217Z,2788
2018-05-23T15:25:47.874Z,2776
2018-05-23T15:26:56.520Z,2760
2018-05-23T15:28:05.183Z,2752
2018-05-23T15:29:13.827Z,2732
2018-05-23T15:30:22.482Z,2708
2018-05-23T15:31:31.196Z,2692
2018-05-23T15:32:39.797Z,2680
2018-05-23T15:33:48.453Z,2672
2018-05-23T15:34:57.361Z,2648
2018-05-23T15:36:06.012Z,2640
2018-05-23T15:37:14.933Z,2612
2018-05-23T15:38:23.594Z,2592